Aérodrome :
LOGIN :

S'inscrire | Disclaimer

   EN    FR    IT 

 










Légende :    VFR   VFR Marginal   IFR   IFR Intensif   IFR Très Intensif
Visi : 
Plafond : 
>= 8 km
>= 3000ft
5 à 8 km
1000 à 3000 ft
1500m à 5 km
500 à 1000 ft
800 à 1500m
200 à 500 ft
< 800m
< 200 ft
Symboles :   Orages  Brouillard  Fortes neiges  Fortes précipitations  Vent > 20 kt
SIGMETs :   Divers  Orages  Givrage  Turbulence  Onde Orograph.  Cendres Volcan.






- Altitude de l'aérodrome : 405 ft
- Code IATA : ODH


EGVO - RAF Odiham

DERNIER METAR :
  • 230720Z 03003KT 9999 7000SW BKN140 BKN180 05/05 Q1016 BECMG 9999 NSW RMK WHT BECMG BLU

METARs EXPIRÉS :
  • 230650Z 02002KT 8000 0500E PRFG SCT001 BKN140 05/05 Q1016 BECMG 8000 BR FEW003 RMK RED BECMG BLU
  • 230550Z 09003KT 3000 0500E BCFG SCT001 SCT150 04/03 Q1016 BECMG 7000 BR FEW001 RMK RED BECMG WHT
  • 230450Z 09004KT 5000 0600E BCFG SCT150 04/04 Q1017 RMK RED

TAF AMD TAF EGVO
Valide du 23 à 06h jusqu'au 23 à 18h UTC


230531Z 2306/2318 09004KT 0400 FG SCT001
BECMG 2306/2308 9000 HZ NSC
PROB30
TEMPO 2310/2313 -RA SCT012
BECMG 2313/2316 BKN010
PROB40
TEMPO 2316/2318 5000 -RADZ BKN006



MET'MAP, la Météo Aéronautique d'un coup d'oeil ! - Copyright ORBIFLY Décembre 2007 - Disclaimer

ORBIFLY MET'MAP TEAM :

Programmation & Développement : Alexandra Zaïnal
Conception & Développement : Baudouin d'Aumeries
Co-Programmation & Développement : Marc-Olivier Méhu
Soutien technique & logistique : Manuel Goepfert

Contact : metmap@orbifly.com




SOURCES & CREDITS :

   NOAA